Time,TemperatureF,DewpointF,PressureIn,WindDirection,WindDirectionDegrees,WindSpeedMPH,WindSpeedGustMPH,Humidity,HourlyPrecipIn,Conditions,Clouds,dailyrainin,SoftwareType,DateUTC
2013-01-09 00:02:00,53.0,53.0,-100.00,NE,43,0.0,0.0,100,0.00,,,0.00,,2013-01-09 08:02:00,
2013-01-09 00:22:00,53.0,53.0,-100.00,NE,43,0.0,0.0,100,0.00,,,0.00,,2013-01-09 08:22:00,
2013-01-09 00:32:00,54.0,54.0,-100.00,SE,125,0.0,11.0,100,0.00,,,0.00,,2013-01-09 08:32:00,
2013-01-09 00:52:00,53.0,53.0,-100.00,SE,125,0.0,11.0,100,0.00,,,0.00,,2013-01-09 08:52:00,
2013-01-09 01:02:00,53.0,53.0,-100.00,SE,125,0.0,0.0,100,0.00,,,0.00,,2013-01-09 09:02:00,
2013-01-09 01:22:00,53.0,53.0,-100.00,SE,125,0.0,0.0,100,0.00,,,0.00,,2013-01-09 09:22:00,
2013-01-09 01:32:00,53.0,53.0,-100.00,SE,125,0.0,4.0,100,0.00,,,0.00,,2013-01-09 09:32:00,
2013-01-09 01:53:00,52.0,52.0,-100.00,SE,125,0.0,9.0,100,0.00,,,0.00,,2013-01-09 09:53:00,
2013-01-09 02:01:00,52.0,52.0,-100.00,SE,125,0.0,3.0,100,0.00,,,0.00,,2013-01-09 10:01:00,
2013-01-09 02:22:00,52.0,52.0,-100.00,SE,125,0.0,0.0,100,0.00,,,0.00,,2013-01-09 10:22:00,
2013-01-09 02:32:00,52.0,52.0,-100.00,SSE,153,0.0,19.0,100,0.00,,,0.00,,2013-01-09 10:32:00,
2013-01-09 02:52:00,52.0,52.0,-100.00,SSE,147,0.0,5.0,100,0.00,,,0.00,,2013-01-09 10:52:00,
2013-01-09 03:02:00,52.0,52.0,-100.00,SSE,147,0.0,0.0,100,0.00,,,0.00,,2013-01-09 11:02:00,
2013-01-09 03:22:00,52.0,52.0,-100.00,SSE,147,0.0,0.0,100,0.00,,,0.00,,2013-01-09 11:22:00,
2013-01-09 03:32:00,52.0,52.0,-100.00,SSE,147,0.0,0.0,100,0.00,,,0.00,,2013-01-09 11:32:00,
2013-01-09 03:52:00,52.0,52.0,-100.00,ENE,71,0.0,7.0,100,0.00,,,0.00,,2013-01-09 11:52:00,
2013-01-09 04:02:00,52.0,52.0,-100.00,ENE,71,0.0,0.0,100,0.00,,,0.00,,2013-01-09 12:02:00,
2013-01-09 04:22:00,52.0,52.0,-100.00,ENE,71,0.0,0.0,100,0.00,,,0.00,,2013-01-09 12:22:00,
2013-01-09 04:32:00,48.0,48.0,-100.00,ENE,71,0.0,0.0,100,0.00,,,0.00,,2013-01-09 12:32:00,
2013-01-09 04:42:00,48.0,48.0,-100.00,ENE,71,0.0,0.0,100,0.00,,,0.00,,2013-01-09 12:42:00,
2013-01-09 04:52:00,46.0,46.0,-100.00,ENE,71,0.0,0.0,100,0.00,,,0.00,,2013-01-09 12:52:00,
2013-01-09 05:02:00,44.0,44.0,-100.00,ENE,71,0.0,0.0,100,0.00,,,0.00,,2013-01-09 13:02:00,
2013-01-09 05:11:00,44.0,44.0,-100.00,ENE,71,0.0,0.0,100,0.00,,,0.00,,2013-01-09 13:11:00,
2013-01-09 05:22:00,44.0,44.0,-100.00,ENE,71,0.0,0.0,100,0.00,,,0.00,,2013-01-09 13:22:00,
2013-01-09 05:32:00,43.0,43.0,-100.00,ENE,71,0.0,0.0,100,0.00,,,0.00,,2013-01-09 13:32:00,
2013-01-09 05:42:00,43.0,43.0,-100.00,ENE,71,0.0,0.0,100,0.00,,,0.00,,2013-01-09 13:42:00,
2013-01-09 05:52:00,43.0,43.0,-100.00,ENE,71,0.0,0.0,100,0.00,,,0.00,,2013-01-09 13:52:00,
2013-01-09 06:02:00,40.0,40.0,-100.00,ENE,71,0.0,0.0,100,0.00,,,0.00,,2013-01-09 14:02:00,
2013-01-09 06:12:00,40.0,40.0,-100.00,ENE,71,0.0,0.0,100,0.00,,,0.00,,2013-01-09 14:12:00,
2013-01-09 06:22:00,40.0,40.0,-100.00,ENE,71,0.0,0.0,100,0.00,,,0.00,,2013-01-09 14:22:00,
2013-01-09 06:32:00,40.0,40.0,-100.00,ENE,71,0.0,0.0,100,0.00,,,0.00,,2013-01-09 14:32:00,
2013-01-09 06:42:00,40.0,40.0,-100.00,ENE,71,0.0,0.0,100,0.00,,,0.00,,2013-01-09 14:42:00,
2013-01-09 06:52:00,40.0,40.0,-100.00,ENE,71,0.0,0.0,100,0.00,,,0.00,,2013-01-09 14:52:00,
2013-01-09 07:03:00,39.0,39.0,-100.00,ENE,71,0.0,0.0,100,0.00,,,0.00,,2013-01-09 15:03:00,
2013-01-09 07:12:00,39.0,39.0,-100.00,ENE,71,0.0,0.0,100,0.00,,,0.00,,2013-01-09 15:12:00,
2013-01-09 07:22:00,38.0,38.0,-100.00,ENE,71,0.0,0.0,100,0.00,,,0.00,,2013-01-09 15:22:00,
2013-01-09 07:33:00,36.0,36.0,-100.00,ENE,71,0.0,0.0,100,0.00,,,0.00,,2013-01-09 15:33:00,
2013-01-09 07:42:00,36.0,36.0,-100.00,ENE,71,0.0,0.0,100,0.00,,,0.00,,2013-01-09 15:42:00,
2013-01-09 07:52:00,36.0,36.0,-100.00,ENE,71,0.0,0.0,100,0.00,,,0.00,,2013-01-09 15:52:00,
2013-01-09 08:02:00,34.0,34.0,-100.00,ENE,71,0.0,0.0,100,0.00,,,0.00,,2013-01-09 16:02:00,
2013-01-09 08:12:00,34.0,34.0,-100.00,ENE,71,0.0,0.0,100,0.00,,,0.00,,2013-01-09 16:12:00,
2013-01-09 08:22:00,34.0,34.0,-100.00,ENE,71,0.0,0.0,100,0.00,,,0.00,,2013-01-09 16:22:00,
2013-01-09 08:33:00,34.0,34.0,-100.00,ENE,71,0.0,0.0,100,0.00,,,0.00,,2013-01-09 16:33:00,
2013-01-09 08:42:00,34.0,34.0,-100.00,ENE,71,0.0,0.0,100,0.00,,,0.00,,2013-01-09 16:42:00,
2013-01-09 08:52:00,34.0,34.0,-100.00,ENE,71,0.0,0.0,100,0.00,,,0.00,,2013-01-09 16:52:00,
2013-01-09 09:02:00,34.0,34.0,-100.00,ENE,71,0.0,0.0,100,0.00,,,0.00,,2013-01-09 17:02:00,
2013-01-09 09:11:00,34.0,34.0,-100.00,ENE,71,0.0,0.0,100,0.00,,,0.00,,2013-01-09 17:11:00,
2013-01-09 09:22:00,34.0,34.0,-100.00,ENE,71,0.0,0.0,100,0.00,,,0.00,,2013-01-09 17:22:00,
2013-01-09 09:32:00,34.0,34.0,-100.00,ENE,71,0.0,0.0,100,0.00,,,0.00,,2013-01-09 17:32:00,
2013-01-09 09:42:00,34.0,34.0,-100.00,ENE,71,0.0,0.0,100,0.00,,,0.00,,2013-01-09 17:42:00,
2013-01-09 09:52:00,34.0,34.0,-100.00,ENE,71,0.0,0.0,100,0.00,,,0.00,,2013-01-09 17:52:00,
2013-01-09 10:02:00,35.0,35.0,-100.00,ENE,71,0.0,0.0,100,0.00,,,0.00,,2013-01-09 18:02:00,
2013-01-09 10:12:00,35.0,35.0,-100.00,ENE,71,0.0,0.0,100,0.00,,,0.00,,2013-01-09 18:12:00,
2013-01-09 10:23:00,35.0,35.0,-100.00,ENE,71,0.0,0.0,100,0.00,,,0.00,,2013-01-09 18:23:00,
2013-01-09 10:32:00,36.0,36.0,-100.00,ENE,71,0.0,0.0,100,0.00,,,0.00,,2013-01-09 18:32:00,
2013-01-09 10:42:00,36.0,36.0,-100.00,ENE,71,0.0,0.0,100,0.00,,,0.00,,2013-01-09 18:42:00,
2013-01-09 10:52:00,36.0,36.0,-100.00,ENE,71,0.0,0.0,100,0.00,,,0.00,,2013-01-09 18:52:00,
2013-01-09 11:02:00,37.0,37.0,-100.00,ENE,71,0.0,0.0,100,0.00,,,0.00,,2013-01-09 19:02:00,
2013-01-09 11:12:00,37.0,37.0,-100.00,ENE,71,0.0,0.0,100,0.00,,,0.00,,2013-01-09 19:12:00,
2013-01-09 11:22:00,37.0,37.0,-100.00,ENE,71,0.0,0.0,100,0.00,,,0.00,,2013-01-09 19:22:00,
2013-01-09 11:32:00,37.0,37.0,-100.00,ENE,71,0.0,0.0,100,0.00,,,0.00,,2013-01-09 19:32:00,
2013-01-09 11:42:00,37.0,37.0,-100.00,ENE,71,0.0,0.0,100,0.00,,,0.00,,2013-01-09 19:42:00,
2013-01-09 11:52:00,37.0,37.0,-100.00,ENE,71,0.0,0.0,100,0.00,,,0.00,,2013-01-09 19:52:00,
2013-01-09 12:02:00,38.0,38.0,-100.00,ENE,71,0.0,0.0,100,0.00,,,0.00,,2013-01-09 20:02:00,
2013-01-09 12:11:00,38.0,38.0,-100.00,ENE,71,0.0,0.0,100,0.00,,,0.00,,2013-01-09 20:11:00,
2013-01-09 12:22:00,38.0,38.0,-100.00,ENE,71,0.0,0.0,100,0.00,,,0.00,,2013-01-09 20:22:00,
2013-01-09 12:32:00,38.0,38.0,-100.00,ENE,71,0.0,0.0,100,0.00,,,0.00,,2013-01-09 20:32:00,
2013-01-09 12:42:00,38.0,38.0,-100.00,ENE,71,0.0,0.0,100,0.00,,,0.00,,2013-01-09 20:42:00,
2013-01-09 12:52:00,39.0,39.0,-100.00,ENE,71,0.0,0.0,100,0.00,,,0.00,,2013-01-09 20:52:00,
2013-01-09 13:02:00,39.0,39.0,-100.00,ENE,71,0.0,0.0,100,0.00,,,0.00,,2013-01-09 21:02:00,
2013-01-09 13:12:00,39.0,39.0,-100.00,ENE,71,0.0,0.0,100,0.00,,,0.00,,2013-01-09 21:12:00,
2013-01-09 13:22:00,39.0,39.0,-100.00,ENE,71,0.0,0.0,100,0.00,,,0.00,,2013-01-09 21:22:00,
2013-01-09 13:33:00,40.0,40.0,-100.00,ENE,71,0.0,0.0,100,0.00,,,0.00,,2013-01-09 21:33:00,
2013-01-09 13:42:00,40.0,40.0,-100.00,ENE,71,0.0,0.0,100,0.00,,,0.00,,2013-01-09 21:42:00,
2013-01-09 13:52:00,40.0,40.0,-100.00,ENE,71,0.0,0.0,100,0.00,,,0.00,,2013-01-09 21:52:00,
2013-01-09 14:02:00,40.0,40.0,-100.00,ENE,71,0.0,0.0,100,0.00,,,0.00,,2013-01-09 22:02:00,
2013-01-09 14:12:00,40.0,40.0,-100.00,ENE,71,0.0,0.0,100,0.00,,,0.00,,2013-01-09 22:12:00,
2013-01-09 14:22:00,40.0,40.0,-100.00,ENE,71,0.0,0.0,100,0.00,,,0.00,,2013-01-09 22:22:00,
2013-01-09 14:32:00,40.0,40.0,-100.00,ENE,71,0.0,0.0,100,0.00,,,0.00,,2013-01-09 22:32:00,
2013-01-09 14:42:00,40.0,40.0,-100.00,ENE,71,0.0,0.0,100,0.00,,,0.00,,2013-01-09 22:42:00,
2013-01-09 14:52:00,39.0,39.0,-100.00,ENE,71,0.0,0.0,100,0.00,,,0.00,,2013-01-09 22:52:00,
2013-01-09 15:02:00,39.0,39.0,-100.00,ENE,71,0.0,0.0,100,0.00,,,0.00,,2013-01-09 23:02:00,
2013-01-09 15:12:00,39.0,39.0,-100.00,ENE,71,0.0,0.0,100,0.00,,,0.00,,2013-01-09 23:12:00,
2013-01-09 15:22:00,39.0,39.0,-100.00,ENE,71,0.0,0.0,100,0.00,,,0.00,,2013-01-09 23:22:00,
2013-01-09 15:32:00,39.0,39.0,-100.00,ENE,71,0.0,0.0,100,0.00,,,0.00,,2013-01-09 23:32:00,
2013-01-09 15:42:00,39.0,39.0,-100.00,ENE,71,0.0,0.0,100,0.00,,,0.00,,2013-01-09 23:42:00,
2013-01-09 15:52:00,39.0,39.0,-100.00,ENE,71,0.0,0.0,100,0.00,,,0.00,,2013-01-09 23:52:00,
2013-01-09 16:02:00,39.0,39.0,-100.00,ENE,71,0.0,0.0,100,0.00,,,0.00,,2013-01-10 00:02:00,
2013-01-09 16:12:00,39.0,39.0,-100.00,ENE,71,0.0,0.0,100,0.00,,,0.00,,2013-01-10 00:12:00,
2013-01-09 16:22:00,39.0,39.0,-100.00,ENE,71,0.0,0.0,100,0.00,,,0.00,,2013-01-10 00:22:00,
2013-01-09 16:32:00,39.0,39.0,-100.00,ENE,71,0.0,0.0,100,0.00,,,0.00,,2013-01-10 00:32:00,
2013-01-09 16:42:00,39.0,39.0,-100.00,ENE,71,0.0,0.0,100,0.00,,,0.00,,2013-01-10 00:42:00,
2013-01-09 16:53:00,38.0,38.0,-100.00,ENE,71,0.0,0.0,100,0.00,,,0.00,,2013-01-10 00:53:00,
2013-01-09 17:02:00,38.0,38.0,-100.00,ENE,71,0.0,0.0,100,0.00,,,0.00,,2013-01-10 01:02:00,
2013-01-09 17:11:00,38.0,38.0,-100.00,ENE,71,0.0,0.0,100,0.00,,,0.00,,2013-01-10 01:11:00,
2013-01-09 17:22:00,38.0,38.0,-100.00,ENE,71,0.0,0.0,100,0.00,,,0.00,,2013-01-10 01:22:00,
2013-01-09 17:32:00,38.0,38.0,-100.00,ENE,71,0.0,0.0,100,0.00,,,0.00,,2013-01-10 01:32:00,
2013-01-09 17:42:00,38.0,38.0,-100.00,ENE,71,0.0,0.0,100,0.00,,,0.00,,2013-01-10 01:42:00,
2013-01-09 17:53:00,38.0,38.0,-100.00,ENE,71,0.0,0.0,100,0.00,,,0.00,,2013-01-10 01:53:00,
2013-01-09 18:02:00,37.0,37.0,-100.00,ENE,71,0.0,0.0,100,0.00,,,0.00,,2013-01-10 02:02:00,
2013-01-09 18:12:00,37.0,37.0,-100.00,ENE,71,0.0,0.0,100,0.00,,,0.00,,2013-01-10 02:12:00,
2013-01-09 18:22:00,36.0,36.0,-100.00,ENE,71,0.0,0.0,100,0.00,,,0.00,,2013-01-10 02:22:00,
2013-01-09 18:32:00,36.0,36.0,-100.00,ENE,71,0.0,0.0,100,0.00,,,0.00,,2013-01-10 02:32:00,
2013-01-09 18:42:00,36.0,36.0,-100.00,ENE,71,0.0,0.0,100,0.00,,,0.00,,2013-01-10 02:42:00,
2013-01-09 18:52:00,36.0,36.0,-100.00,ENE,71,0.0,0.0,100,0.00,,,0.00,,2013-01-10 02:52:00,
2013-01-09 19:02:00,35.0,35.0,-100.00,ENE,71,0.0,0.0,100,0.00,,,0.00,,2013-01-10 03:02:00,
2013-01-09 19:11:00,35.0,35.0,-100.00,ENE,71,0.0,0.0,100,0.00,,,0.00,,2013-01-10 03:11:00,
2013-01-09 19:22:00,35.0,35.0,-100.00,ENE,71,0.0,0.0,100,0.00,,,0.00,,2013-01-10 03:22:00,
2013-01-09 19:32:00,34.0,34.0,-100.00,ENE,71,0.0,0.0,100,0.00,,,0.00,,2013-01-10 03:32:00,
2013-01-09 19:42:00,34.0,34.0,-100.00,ENE,71,0.0,0.0,100,0.00,,,0.00,,2013-01-10 03:42:00,
2013-01-09 19:52:00,33.0,33.0,-100.00,ENE,71,0.0,0.0,100,0.00,,,0.00,,2013-01-10 03:52:00,
2013-01-09 20:02:00,32.0,32.0,-100.00,ENE,71,0.0,0.0,100,0.00,,,0.00,,2013-01-10 04:02:00,
2013-01-09 20:11:00,32.0,32.0,-100.00,ENE,71,0.0,0.0,100,0.00,,,0.00,,2013-01-10 04:11:00,
2013-01-09 20:22:00,33.0,33.0,-100.00,ENE,71,0.0,0.0,100,0.00,,,0.00,,2013-01-10 04:22:00,
2013-01-09 20:32:00,33.0,33.0,-100.00,ENE,71,0.0,0.0,100,0.00,,,0.00,,2013-01-10 04:32:00,
2013-01-09 20:42:00,33.0,33.0,-100.00,ENE,71,0.0,0.0,100,0.00,,,0.00,,2013-01-10 04:42:00,
2013-01-09 20:52:00,33.0,33.0,-100.00,ENE,71,0.0,0.0,100,0.00,,,0.00,,2013-01-10 04:52:00,
2013-01-09 21:12:00,33.0,33.0,-100.00,ENE,71,0.0,0.0,100,0.00,,,0.00,,2013-01-10 05:12:00,
2013-01-09 21:22:00,33.0,33.0,-100.00,ENE,71,0.0,0.0,100,0.00,,,0.00,,2013-01-10 05:22:00,
2013-01-09 21:32:00,33.0,33.0,-100.00,ENE,71,0.0,0.0,100,0.00,,,0.00,,2013-01-10 05:32:00,
2013-01-09 21:42:00,33.0,33.0,-100.00,ENE,71,0.0,0.0,100,0.00,,,0.00,,2013-01-10 05:42:00,
2013-01-09 21:52:00,32.0,32.0,-100.00,ENE,71,0.0,0.0,100,0.00,,,0.00,,2013-01-10 05:52:00,
2013-01-09 22:02:00,32.0,32.0,-100.00,ENE,71,0.0,0.0,100,0.00,,,0.00,,2013-01-10 06:02:00,
2013-01-09 22:11:00,32.0,32.0,-100.00,ENE,71,0.0,0.0,100,0.00,,,0.00,,2013-01-10 06:11:00,
2013-01-09 22:22:00,32.0,32.0,-100.00,ENE,71,0.0,0.0,100,0.00,,,0.00,,2013-01-10 06:22:00,
2013-01-09 22:32:00,32.0,32.0,-100.00,ENE,71,0.0,0.0,100,0.00,,,0.00,,2013-01-10 06:32:00,
2013-01-09 22:42:00,32.0,32.0,-100.00,ENE,71,0.0,0.0,100,0.00,,,0.00,,2013-01-10 06:42:00,
2013-01-09 22:52:00,31.0,31.0,-100.00,ENE,71,0.0,0.0,100,0.00,,,0.00,,2013-01-10 06:52:00,
2013-01-09 23:01:00,30.0,30.0,-100.00,ENE,71,0.0,0.0,100,0.00,,,0.00,,2013-01-10 07:01:00,
2013-01-09 23:11:00,30.0,30.0,-100.00,ENE,71,0.0,0.0,100,0.00,,,0.00,,2013-01-10 07:11:00,
2013-01-09 23:22:00,30.0,30.0,-100.00,ENE,71,0.0,0.0,100,0.00,,,0.00,,2013-01-10 07:22:00,
2013-01-09 23:32:00,31.0,31.0,-100.00,ENE,71,0.0,0.0,100,0.00,,,0.00,,2013-01-10 07:32:00,
2013-01-09 23:42:00,31.0,31.0,-100.00,ENE,71,0.0,0.0,100,0.00,,,0.00,,2013-01-10 07:42:00,
2013-01-09 23:52:00,31.0,31.0,-100.00,ENE,71,0.0,0.0,100,0.00,,,0.00,,2013-01-10 07:52:00,